createdAt,value
2022-11-04T00:00:10.634Z,7.66
2022-11-04T00:02:57.241Z,7.61
2022-11-04T00:05:23.692Z,7.54
2022-11-04T00:08:08.878Z,7.50
2022-11-04T00:10:54.018Z,7.50
2022-11-04T00:13:20.467Z,7.52
2022-11-04T00:16:05.499Z,7.50
2022-11-04T00:18:31.876Z,7.49
2022-11-04T00:21:17.059Z,7.47
2022-11-04T00:24:02.274Z,7.47
2022-11-04T00:26:47.350Z,7.42
2022-11-04T00:29:13.737Z,7.40
2022-11-04T00:31:58.861Z,7.39
2022-11-04T00:34:25.293Z,7.37
2022-11-04T00:36:51.583Z,7.35
2022-11-04T00:39:18.052Z,7.32
2022-11-04T00:41:44.476Z,7.31
2022-11-04T00:44:10.824Z,7.31
2022-11-04T00:46:37.257Z,7.28
2022-11-04T00:49:03.746Z,7.28
2022-11-04T00:51:30.263Z,7.25
2022-11-04T00:53:57.576Z,7.21
2022-11-04T00:56:24.083Z,7.19
2022-11-04T00:58:50.535Z,7.17
2022-11-04T01:01:17.896Z,7.15
2022-11-04T01:03:46.530Z,7.08
2022-11-04T01:06:13.017Z,7.02
2022-11-04T01:08:40.024Z,6.96
2022-11-04T01:11:08.778Z,6.93
2022-11-04T01:13:36.065Z,6.92
2022-11-04T01:16:06.135Z,6.94
2022-11-04T01:18:32.665Z,6.94
2022-11-04T01:21:03.641Z,6.93
2022-11-04T01:23:30.685Z,6.91
2022-11-04T01:25:57.144Z,6.91
2022-11-04T01:28:23.541Z,6.89
2022-11-04T01:30:49.870Z,6.87
2022-11-04T01:33:16.249Z,6.87
2022-11-04T01:35:42.599Z,6.88
2022-11-04T01:38:09.345Z,6.88
2022-11-04T01:40:40.352Z,6.90
2022-11-04T01:43:16.170Z,6.95
2022-11-04T01:45:50.144Z,6.95
2022-11-04T01:48:23.829Z,6.95
2022-11-04T01:50:53.335Z,6.92
2022-11-04T01:53:30.803Z,6.85
2022-11-04T01:56:00.229Z,6.76
2022-11-04T01:58:31.550Z,6.69
2022-11-04T02:00:58.023Z,6.66
2022-11-04T02:03:38.317Z,6.64
2022-11-04T02:06:06.336Z,6.63
2022-11-04T02:08:33.669Z,6.61
2022-11-04T02:11:02.347Z,6.57
2022-11-04T02:13:32.596Z,6.49
2022-11-04T02:16:02.080Z,6.43
2022-11-04T02:18:43.842Z,6.40
2022-11-04T02:21:29.193Z,6.39
2022-11-04T02:24:04.411Z,6.37
2022-11-04T02:26:58.574Z,6.31
2022-11-04T02:29:49.896Z,6.17
2022-11-04T02:32:26.659Z,6.00
2022-11-04T02:35:04.301Z,5.84
2022-11-04T02:40:45.281Z,5.70
2022-11-04T02:43:30.101Z,5.67
2022-11-04T02:46:06.496Z,5.66
2022-11-04T02:48:45.419Z,5.64
2022-11-04T02:51:24.897Z,5.57
2022-11-04T02:54:02.621Z,5.49
2022-11-04T02:56:30.723Z,5.47
2022-11-04T02:59:03.203Z,5.44
2022-11-04T03:01:36.096Z,5.37
2022-11-04T03:04:13.167Z,5.35
2022-11-04T03:06:41.963Z,5.38
2022-11-04T03:09:11.068Z,5.44
2022-11-04T03:11:40.782Z,5.48
2022-11-04T03:14:16.430Z,5.53
2022-11-04T03:16:56.067Z,5.55
2022-11-04T03:19:53.959Z,5.53
2022-11-04T03:22:23.034Z,5.57
2022-11-04T03:24:50.184Z,5.59
2022-11-04T03:27:23.390Z,5.64
2022-11-04T03:30:06.260Z,5.71
2022-11-04T03:32:38.640Z,5.77
2022-11-04T03:35:06.849Z,5.82
2022-11-04T03:37:33.900Z,5.88
2022-11-04T03:40:02.119Z,5.94
2022-11-04T03:42:31.620Z,5.97
2022-11-04T03:44:59.137Z,6.00
2022-11-04T03:47:27.563Z,6.04
2022-11-04T03:50:27.969Z,6.10
2022-11-04T03:52:56.428Z,6.12
2022-11-04T03:55:51.148Z,6.15
2022-11-04T03:58:38.661Z,6.17
2022-11-04T04:01:24.144Z,6.21
2022-11-04T04:04:12.670Z,6.26
2022-11-04T04:06:40.777Z,6.29
2022-11-04T04:09:19.927Z,6.29
2022-11-04T04:11:57.839Z,6.30
2022-11-04T04:14:39.517Z,6.32
2022-11-04T04:17:21.209Z,6.29
2022-11-04T04:19:53.452Z,6.26
2022-11-04T04:22:34.349Z,6.24
2022-11-04T04:25:24.428Z,6.17
2022-11-04T04:27:52.530Z,6.09
2022-11-04T04:30:19.197Z,6.03
2022-11-04T04:32:47.456Z,5.98
2022-11-04T04:35:33.199Z,5.90
2022-11-04T04:38:20.814Z,5.81
2022-11-04T04:41:19.785Z,5.77
2022-11-04T04:44:05.246Z,5.73
2022-11-04T04:46:32.135Z,5.59
2022-11-04T04:49:06.335Z,5.52
2022-11-04T04:51:35.655Z,5.49
2022-11-04T04:54:02.089Z,5.45
2022-11-04T04:56:28.860Z,5.39
2022-11-04T04:58:55.228Z,5.34
2022-11-04T05:01:21.793Z,5.29
2022-11-04T05:03:48.461Z,5.21
2022-11-04T05:06:14.792Z,5.05
2022-11-04T05:08:41.327Z,4.92
2022-11-04T05:11:07.763Z,4.89
2022-11-04T05:13:34.274Z,4.86
2022-11-04T05:16:07.199Z,4.84
2022-11-04T05:18:34.514Z,4.87
2022-11-04T05:21:05.965Z,4.83
2022-11-04T05:23:34.137Z,4.82
2022-11-04T05:26:00.618Z,4.84
2022-11-04T05:28:27.063Z,4.81
2022-11-04T05:30:53.527Z,4.76
2022-11-04T05:33:19.986Z,4.61
2022-11-04T05:35:46.437Z,4.52
2022-11-04T05:38:13.039Z,4.50
2022-11-04T05:40:39.467Z,4.51
2022-11-04T05:43:06.023Z,4.50
2022-11-04T05:45:32.627Z,4.47
2022-11-04T05:48:00.156Z,4.52
2022-11-04T05:50:27.955Z,4.53
2022-11-04T05:52:57.518Z,4.58
2022-11-04T05:55:24.619Z,4.66
2022-11-04T05:57:51.375Z,4.68
2022-11-04T06:00:18.136Z,4.72
2022-11-04T06:02:44.912Z,4.77
2022-11-04T06:05:11.411Z,4.82
2022-11-04T06:07:37.795Z,4.89
2022-11-04T06:10:04.442Z,4.94
2022-11-04T06:12:30.869Z,5.07
2022-11-04T06:14:57.559Z,5.16
2022-11-04T06:17:24.048Z,5.20
2022-11-04T06:19:50.470Z,5.25
2022-11-04T06:22:18.506Z,5.32
2022-11-04T06:24:45.244Z,5.42
2022-11-04T06:27:12.173Z,5.50
2022-11-04T06:29:41.617Z,5.58
2022-11-04T06:32:14.565Z,5.68
2022-11-04T06:34:41.330Z,5.81
2022-11-04T06:37:09.391Z,5.91
2022-11-04T06:39:36.513Z,6.00
2022-11-04T06:42:03.936Z,6.10
2022-11-04T06:44:30.480Z,6.19
2022-11-04T06:46:57.124Z,6.27
2022-11-04T06:49:23.561Z,6.36
2022-11-04T06:51:50.093Z,6.45
2022-11-04T06:54:17.350Z,6.51
2022-11-04T06:56:44.806Z,6.58
2022-11-04T06:59:16.163Z,6.66
2022-11-04T07:01:43.299Z,6.74
2022-11-04T07:04:10.352Z,6.81
2022-11-04T07:06:39.712Z,6.88
2022-11-04T07:09:15.497Z,6.96
2022-11-04T07:11:43.794Z,7.02
2022-11-04T07:14:11.142Z,7.07
2022-11-04T07:16:37.884Z,7.11
2022-11-04T07:19:05.242Z,7.15
2022-11-04T07:21:31.980Z,7.19
2022-11-04T07:23:58.424Z,7.24
2022-11-04T07:26:25.056Z,7.29
2022-11-04T07:28:51.896Z,7.36
2022-11-04T07:31:19.048Z,7.46
2022-11-04T07:33:49.269Z,7.57
2022-11-04T07:36:16.800Z,7.65
2022-11-04T07:38:43.609Z,7.73
2022-11-04T07:41:10.439Z,7.82
2022-11-04T07:43:36.950Z,7.93
2022-11-04T07:46:11.812Z,7.99
2022-11-04T07:48:38.954Z,8.11
2022-11-04T07:51:07.712Z,8.26
2022-11-04T07:53:34.461Z,8.40
2022-11-04T07:56:11.091Z,8.53
2022-11-04T07:58:38.003Z,8.70
2022-11-04T08:01:08.028Z,8.87
2022-11-04T08:03:34.986Z,9.06
2022-11-04T08:06:03.935Z,9.22
2022-11-04T08:08:30.518Z,9.35
2022-11-04T08:11:00.513Z,9.45
2022-11-04T08:13:28.982Z,9.56
2022-11-04T08:15:56.735Z,9.64
2022-11-04T08:18:23.221Z,9.76
2022-11-04T08:20:50.870Z,9.89
2022-11-04T08:23:18.129Z,9.97
2022-11-04T08:25:45.345Z,10.08
2022-11-04T08:28:16.746Z,10.16
2022-11-04T08:30:57.461Z,10.27
2022-11-04T08:33:26.112Z,10.40
2022-11-04T08:35:54.067Z,10.48
2022-11-04T08:38:20.754Z,10.55
2022-11-04T08:40:47.348Z,10.61
2022-11-04T08:43:13.781Z,10.68
2022-11-04T08:45:45.527Z,10.78
2022-11-04T08:48:13.397Z,10.85
2022-11-04T08:50:39.918Z,10.95
2022-11-04T08:53:06.609Z,11.02
2022-11-04T08:55:33.925Z,11.12
2022-11-04T08:58:01.996Z,11.20
2022-11-04T09:00:28.556Z,11.30
2022-11-04T09:02:55.089Z,11.34
2022-11-04T09:05:22.071Z,11.39
2022-11-04T09:07:48.508Z,11.44
2022-11-04T09:10:15.014Z,11.46
2022-11-04T09:12:42.350Z,11.50
2022-11-04T09:15:09.296Z,11.56
2022-11-04T09:17:36.020Z,11.60
2022-11-04T09:20:04.102Z,11.67
2022-11-04T09:22:31.277Z,11.73
2022-11-04T09:24:57.698Z,11.80
2022-11-04T09:27:24.744Z,11.86
2022-11-04T09:29:51.089Z,11.91
2022-11-04T09:32:17.412Z,11.95
2022-11-04T09:34:43.837Z,11.96
2022-11-04T09:37:10.259Z,11.94
2022-11-04T09:39:36.809Z,11.93
2022-11-04T09:42:31.498Z,11.94
2022-11-04T09:45:26.806Z,11.89
2022-11-04T09:48:05.663Z,11.86
2022-11-04T09:50:43.821Z,11.90
2022-11-04T09:53:38.767Z,11.91
2022-11-04T09:56:18.068Z,11.94
2022-11-04T09:58:44.745Z,11.98
2022-11-04T10:01:19.199Z,12.07
2022-11-04T10:04:02.358Z,12.16
2022-11-04T10:06:46.211Z,12.24
2022-11-04T10:09:37.656Z,12.28
2022-11-04T10:12:41.922Z,12.42
2022-11-04T10:15:17.640Z,12.53
2022-11-04T10:18:15.017Z,12.60
2022-11-04T10:20:58.003Z,12.64
2022-11-04T10:23:37.736Z,12.63
2022-11-04T10:26:18.751Z,12.63
2022-11-04T10:28:55.649Z,12.60
2022-11-04T10:31:23.673Z,12.62
2022-11-04T10:33:55.911Z,12.55
2022-11-04T10:36:24.414Z,12.49
2022-11-04T10:38:54.921Z,12.45
2022-11-04T10:41:24.162Z,12.38
2022-11-04T10:44:03.998Z,12.35
2022-11-04T10:46:38.732Z,12.33
2022-11-04T10:49:19.321Z,12.34
2022-11-04T10:51:45.781Z,12.30
2022-11-04T10:54:12.235Z,12.22
2022-11-04T10:56:46.928Z,12.23
2022-11-04T10:59:24.582Z,12.30
2022-11-04T11:01:54.512Z,12.37
2022-11-04T11:04:32.812Z,12.40
2022-11-04T11:07:02.329Z,12.35
2022-11-04T11:09:53.533Z,12.30
2022-11-04T11:12:55.296Z,12.30
2022-11-04T11:15:24.789Z,12.36
2022-11-04T11:18:12.863Z,12.45
2022-11-04T11:20:40.518Z,12.59
2022-11-04T11:23:35.216Z,12.72
2022-11-04T11:26:05.266Z,12.89
2022-11-04T11:28:37.484Z,13.00
2022-11-04T11:31:13.854Z,13.06
2022-11-04T11:33:48.604Z,13.16
2022-11-04T11:36:37.765Z,13.26
2022-11-04T11:39:22.420Z,13.28
2022-11-04T11:41:57.876Z,13.23
2022-11-04T11:44:38.036Z,13.17
2022-11-04T11:47:07.316Z,13.10
2022-11-04T11:49:36.085Z,12.99
2022-11-04T11:52:24.383Z,12.92
2022-11-04T11:54:54.427Z,12.90
2022-11-04T11:57:45.217Z,12.97
2022-11-04T12:09:56.897Z,13.15
2022-11-04T12:12:55.895Z,13.25
2022-11-04T12:15:48.543Z,13.31
2022-11-04T12:18:56.649Z,13.26
2022-11-04T12:21:34.530Z,13.18
2022-11-04T12:24:27.044Z,13.15
2022-11-04T12:27:12.511Z,13.12
2022-11-04T12:29:45.024Z,13.04
2022-11-04T12:32:20.329Z,12.90
2022-11-04T12:35:04.825Z,12.81
2022-11-04T12:37:34.031Z,12.70
2022-11-04T12:40:27.668Z,12.63
2022-11-04T12:42:57.209Z,12.56
2022-11-04T12:45:42.795Z,12.56
2022-11-04T12:48:17.881Z,12.58
2022-11-04T12:50:52.250Z,12.61
2022-11-04T12:53:40.212Z,12.67
2022-11-04T12:56:11.877Z,12.72
2022-11-04T12:58:56.862Z,12.75
2022-11-04T13:01:37.271Z,12.79
2022-11-04T13:04:15.100Z,12.81
2022-11-04T13:07:03.406Z,12.82
2022-11-04T13:09:44.604Z,12.81
2022-11-04T13:12:16.083Z,12.77
2022-11-04T13:15:07.217Z,12.70
2022-11-04T13:17:39.614Z,12.62
2022-11-04T13:20:13.483Z,12.63
2022-11-04T13:22:45.904Z,12.61
2022-11-04T13:25:22.991Z,12.58
2022-11-04T13:27:50.520Z,12.55
2022-11-04T13:30:29.254Z,12.49
2022-11-04T13:33:20.982Z,12.49
2022-11-04T13:36:18.521Z,12.44
2022-11-04T13:39:07.712Z,12.42
2022-11-04T13:42:01.776Z,12.39
2022-11-04T13:44:46.441Z,12.38
2022-11-04T13:47:21.957Z,12.32
2022-11-04T13:49:51.341Z,12.29
2022-11-04T13:52:18.117Z,12.23
2022-11-04T13:54:46.410Z,12.19
2022-11-04T13:57:19.065Z,12.14
2022-11-04T14:00:18.008Z,12.12
2022-11-04T14:02:52.416Z,12.10
2022-11-04T14:05:31.743Z,12.05
2022-11-04T14:07:58.718Z,12.00
2022-11-04T14:10:41.898Z,11.95
2022-11-04T14:13:26.770Z,11.89
2022-11-04T14:16:10.988Z,11.77
2022-11-04T14:18:43.137Z,11.66
2022-11-04T14:21:21.403Z,11.60
2022-11-04T14:23:59.724Z,11.57
2022-11-04T14:26:30.257Z,11.55
2022-11-04T14:29:05.472Z,11.51
2022-11-04T14:31:56.758Z,11.50
2022-11-04T14:34:23.131Z,11.48
2022-11-04T14:36:54.894Z,11.41
2022-11-04T14:39:29.848Z,11.33
2022-11-04T14:42:00.101Z,11.25
2022-11-04T14:44:37.211Z,11.19
2022-11-04T14:47:28.348Z,11.15
2022-11-04T14:49:57.802Z,11.13
2022-11-04T14:52:49.937Z,11.11
2022-11-04T14:55:19.795Z,11.09
2022-11-04T14:57:52.028Z,11.06
2022-11-04T15:00:38.320Z,11.01
2022-11-04T15:03:52.142Z,10.98
2022-11-04T15:06:06.132Z,10.94
2022-11-04T15:08:32.564Z,10.91
2022-11-04T15:11:02.307Z,10.84
2022-11-04T15:13:32.979Z,10.79
2022-11-04T15:16:05.491Z,10.80
2022-11-04T15:18:32.206Z,10.80
2022-11-04T15:21:03.214Z,10.79
2022-11-04T15:23:34.438Z,10.76
2022-11-04T15:26:03.130Z,10.71
2022-11-04T15:28:34.194Z,10.69
2022-11-04T15:31:08.265Z,10.67
2022-11-04T15:33:41.123Z,10.65
2022-11-04T15:36:14.402Z,10.68
2022-11-04T15:38:47.130Z,10.70
2022-11-04T15:41:38.309Z,10.68
2022-11-04T15:44:14.579Z,10.62
2022-11-04T15:46:47.660Z,10.57
2022-11-04T15:49:21.909Z,10.56
2022-11-04T15:51:48.679Z,10.54
2022-11-04T15:54:23.092Z,10.52
2022-11-04T15:56:54.768Z,10.49
2022-11-04T15:59:36.717Z,10.47
2022-11-04T16:02:06.539Z,10.47
2022-11-04T16:04:33.271Z,10.44
2022-11-04T16:07:30.228Z,10.43
2022-11-04T16:09:56.685Z,10.43
2022-11-04T16:12:23.036Z,10.43
2022-11-04T16:14:51.506Z,10.44
2022-11-04T16:17:19.629Z,10.40
2022-11-04T16:19:48.806Z,10.34
2022-11-04T16:22:32.730Z,10.34
2022-11-04T16:25:02.523Z,10.33
2022-11-04T16:27:32.239Z,10.32
2022-11-04T16:30:05.379Z,10.34
2022-11-04T16:32:50.046Z,10.34
2022-11-04T16:35:25.852Z,10.34
2022-11-04T16:37:53.871Z,10.33
2022-11-04T16:40:22.320Z,10.31
2022-11-04T16:42:50.090Z,10.32
2022-11-04T16:45:23.277Z,10.33
2022-11-04T16:47:49.873Z,10.33
2022-11-04T16:50:17.133Z,10.29
2022-11-04T16:52:44.407Z,10.29
2022-11-04T16:55:12.763Z,10.29
2022-11-04T16:57:39.794Z,10.30
2022-11-04T17:00:07.521Z,10.31
2022-11-04T17:02:40.433Z,10.32
2022-11-04T17:05:08.064Z,10.30
2022-11-04T17:07:52.038Z,10.25
2022-11-04T17:10:24.329Z,10.17
2022-11-04T17:12:50.752Z,10.13
2022-11-04T17:15:17.839Z,10.10
2022-11-04T17:17:44.866Z,10.06
2022-11-04T17:20:14.337Z,10.04
2022-11-04T17:22:41.183Z,10.00
2022-11-04T17:25:15.595Z,10.01
2022-11-04T17:27:41.986Z,10.00
2022-11-04T17:30:08.570Z,9.99
2022-11-04T17:32:35.005Z,9.96
2022-11-04T17:35:01.451Z,9.94
2022-11-04T17:37:27.875Z,9.95
2022-11-04T17:39:54.834Z,9.95
2022-11-04T17:42:40.114Z,9.96
2022-11-04T17:45:06.974Z,9.97
2022-11-04T17:47:37.598Z,9.94
2022-11-04T17:50:07.341Z,9.94
2022-11-04T17:52:35.198Z,9.93
2022-11-04T17:55:02.367Z,9.87
2022-11-04T17:57:29.009Z,9.75
2022-11-04T17:59:55.416Z,9.68
2022-11-04T18:02:22.017Z,9.64
2022-11-04T18:04:48.554Z,9.63
2022-11-04T18:07:15.327Z,9.63
2022-11-04T18:09:42.414Z,9.65
2022-11-04T18:12:27.410Z,9.62
2022-11-04T18:14:53.895Z,9.63
2022-11-04T18:17:24.033Z,9.71
2022-11-04T18:19:53.513Z,9.78
2022-11-04T18:22:19.959Z,9.85
2022-11-04T18:24:47.294Z,9.92
2022-11-04T18:27:14.543Z,9.85
2022-11-04T18:29:40.993Z,9.80
2022-11-04T18:32:07.467Z,9.79
2022-11-04T18:34:34.017Z,9.77
2022-11-04T18:37:00.545Z,9.64
2022-11-04T18:39:27.078Z,9.54
2022-11-04T18:41:53.465Z,9.50
2022-11-04T18:44:21.764Z,9.46
2022-11-04T18:46:49.184Z,9.42
2022-11-04T18:49:16.818Z,9.41
2022-11-04T18:51:43.588Z,9.42
2022-11-04T18:54:11.308Z,9.39
2022-11-04T18:56:38.466Z,9.38
2022-11-04T18:59:08.763Z,9.40
2022-11-04T19:01:35.362Z,9.38
2022-11-04T19:04:01.932Z,9.36
2022-11-04T19:06:34.237Z,9.30
2022-11-04T19:09:32.129Z,9.29
2022-11-04T19:12:15.042Z,9.31
2022-11-04T19:14:41.673Z,9.28
2022-11-04T19:17:08.289Z,9.28
2022-11-04T19:19:34.950Z,9.30
2022-11-04T19:22:01.488Z,9.30
2022-11-04T19:24:28.049Z,9.31
2022-11-04T19:26:54.849Z,9.30
2022-11-04T19:29:21.354Z,9.28
2022-11-04T19:31:48.256Z,9.28
2022-11-04T19:34:14.859Z,9.28
2022-11-04T19:36:41.376Z,9.26
2022-11-04T19:39:08.301Z,9.23
2022-11-04T19:41:53.580Z,9.20
2022-11-04T19:44:21.157Z,9.18
2022-11-04T19:46:48.761Z,9.13
2022-11-04T19:49:16.330Z,9.10
2022-11-04T19:51:43.499Z,9.08
2022-11-04T19:54:12.265Z,9.02
2022-11-04T19:56:39.167Z,8.99
2022-11-04T19:59:07.103Z,9.01
2022-11-04T20:01:35.139Z,9.01
2022-11-04T20:04:03.232Z,9.03
2022-11-04T20:06:31.449Z,9.04
2022-11-04T20:09:01.275Z,9.04
2022-11-04T20:11:27.784Z,9.02
2022-11-04T20:13:54.442Z,9.00
2022-11-04T20:16:22.807Z,8.99
2022-11-04T20:18:51.799Z,8.97
2022-11-04T20:21:20.392Z,8.93
2022-11-04T20:23:47.098Z,8.89
2022-11-04T20:26:23.405Z,8.92
2022-11-04T20:28:55.677Z,9.03
2022-11-04T20:31:24.241Z,9.12
2022-11-04T20:33:51.997Z,9.22
2022-11-04T20:36:21.637Z,9.23
2022-11-04T20:38:48.236Z,9.14
2022-11-04T20:41:19.041Z,9.12
2022-11-04T20:43:47.897Z,9.10
2022-11-04T20:46:17.084Z,9.09
2022-11-04T20:48:43.645Z,9.07
2022-11-04T20:51:13.823Z,9.09
2022-11-04T20:53:41.399Z,9.12
2022-11-04T20:56:10.160Z,9.18
2022-11-04T20:58:38.625Z,9.19
2022-11-04T21:01:08.783Z,9.20
2022-11-04T21:03:35.360Z,9.22
2022-11-04T21:06:01.947Z,9.21
2022-11-04T21:08:28.359Z,9.19
2022-11-04T21:10:55.987Z,9.14
2022-11-04T21:13:22.541Z,9.08
2022-11-04T21:15:53.825Z,9.04
2022-11-04T21:18:21.773Z,8.98
2022-11-04T21:20:49.050Z,9.04
2022-11-04T21:23:17.048Z,9.06
2022-11-04T21:26:20.645Z,9.08
2022-11-04T21:28:48.652Z,9.08
2022-11-04T21:31:15.050Z,9.08
2022-11-04T21:33:41.651Z,9.07
2022-11-04T21:36:11.349Z,9.06
2022-11-04T21:38:39.051Z,9.05
2022-11-04T21:41:08.951Z,9.04
2022-11-04T21:43:35.404Z,9.05
2022-11-04T21:46:04.939Z,9.06
2022-11-04T21:48:32.446Z,9.04
2022-11-04T21:51:04.213Z,9.05
2022-11-04T21:53:31.229Z,9.04
2022-11-04T21:56:10.925Z,9.06
2022-11-04T21:58:37.824Z,9.05
2022-11-04T22:01:06.502Z,9.02
2022-11-04T22:03:33.506Z,8.98
2022-11-04T22:06:02.450Z,8.94
2022-11-04T22:08:30.991Z,8.90
2022-11-04T22:11:09.715Z,8.85
2022-11-04T22:13:36.260Z,8.83
2022-11-04T22:16:20.761Z,8.84
2022-11-04T22:18:51.055Z,8.84
2022-11-04T22:21:18.298Z,8.84
2022-11-04T22:23:44.939Z,8.88
2022-11-04T22:26:15.933Z,8.89
2022-11-04T22:28:42.424Z,8.90
2022-11-04T22:31:25.143Z,8.91
2022-11-04T22:33:52.763Z,8.90
2022-11-04T22:36:20.328Z,8.90
2022-11-04T22:38:46.741Z,8.89
2022-11-04T22:41:17.577Z,8.91
2022-11-04T22:43:44.072Z,8.91
2022-11-04T22:46:14.165Z,8.86
2022-11-04T22:48:40.948Z,8.84
2022-11-04T22:51:09.292Z,8.83
2022-11-04T22:53:36.245Z,8.79
2022-11-04T22:56:04.575Z,8.76
2022-11-04T22:58:31.040Z,8.73
2022-11-04T23:01:06.234Z,8.68
2022-11-04T23:03:32.872Z,8.65
2022-11-04T23:06:02.095Z,8.61
2022-11-04T23:08:30.671Z,8.59
2022-11-04T23:11:19.056Z,8.58
2022-11-04T23:14:20.892Z,8.58
2022-11-04T23:17:09.067Z,8.55
2022-11-04T23:19:36.402Z,8.51
2022-11-04T23:22:22.327Z,8.51
2022-11-04T23:25:10.319Z,8.53
2022-11-04T23:28:03.285Z,8.53
2022-11-04T23:30:35.640Z,8.50
2022-11-04T23:33:08.092Z,8.49
2022-11-04T23:35:59.537Z,8.49
2022-11-04T23:38:27.848Z,8.47
2022-11-04T23:41:19.670Z,8.47
2022-11-04T23:43:46.240Z,8.46
2022-11-04T23:46:31.596Z,8.48
2022-11-04T23:49:17.169Z,8.49
2022-11-04T23:52:02.259Z,8.48
2022-11-04T23:54:47.147Z,8.46
2022-11-04T23:57:56.784Z,8.47
